Time;durP1;ratioP1;P1;durP2;ratioP2;P2;SDS_P1;SDS_P2;PMS_P1;PMS_P2;Temp;Humidity;BMP_temperature;BMP_pressure;BME280_temperature;BME280_humidity;BME280_pressure;Samples;Min_cycle;Max_cycle;Signal;HPM_P1;HPM_P2
2022/03/16 00:00:21;;;;;;;13.02;5.90;;;;;;;12.39;63.50;95864.44;4973762;28;20038;-66
2022/03/16 00:02:50;;;;;;;13.07;5.82;;;;;;;12.63;62.45;95867.66;4956587;28;20399;-66
2022/03/16 00:05:16;;;;;;;11.43;5.50;;;;;;;12.19;63.95;95865.59;4973822;28;20018;-66
2022/03/16 00:07:42;;;;;;;18.98;6.60;;;;;;;12.56;62.61;95863.81;4973973;28;20019;-66
2022/03/16 00:10:09;;;;;;;18.15;6.43;;;;;;;13.00;61.83;95909.34;4973590;28;20133;-66
2022/03/16 00:12:36;;;;;;;13.45;5.90;;;;;;;12.46;62.47;95838.91;4973841;28;20022;-65
2022/03/16 00:15:01;;;;;;;12.63;6.18;;;;;;;13.24;61.26;95902.94;4973728;28;20027;-65
2022/03/16 00:17:27;;;;;;;18.20;6.40;;;;;;;13.39;60.69;95915.19;4973740;28;20019;-65
2022/03/16 00:19:52;;;;;;;11.82;6.57;;;;;;;12.98;60.85;95878.66;4973538;28;20031;-66
2022/03/16 00:22:18;;;;;;;14.18;6.93;;;;;;;12.87;62.41;95931.50;4956078;28;20046;-66
2022/03/16 00:24:43;;;;;;;17.20;7.13;;;;;;;12.25;63.82;95884.97;4973504;28;20097;-65
2022/03/16 00:27:08;;;;;;;20.95;7.68;;;;;;;12.48;62.65;95865.28;4973623;28;20468;-66
2022/03/16 00:29:35;;;;;;;20.10;7.90;;;;;;;12.85;61.80;95915.00;4956045;28;20027;-67
2022/03/16 00:32:00;;;;;;;13.57;7.32;;;;;;;11.56;64.15;95842.97;4973358;28;20031;-66
2022/03/16 00:34:26;;;;;;;11.95;8.27;;;;;;;11.91;64.30;95884.22;4973397;28;20034;-66
2022/03/16 00:36:52;;;;;;;18.90;8.43;;;;;;;11.58;64.59;95883.44;4973497;28;20022;-66
2022/03/16 00:39:18;;;;;;;17.48;9.07;;;;;;;11.75;64.18;95858.09;4973083;28;20407;-66
2022/03/16 00:41:43;;;;;;;19.88;9.55;;;;;;;12.37;63.90;95963.41;4973050;28;20399;-66
2022/03/16 00:44:09;;;;;;;23.08;8.52;;;;;;;11.79;64.53;95907.88;4973435;28;20031;-66
2022/03/16 00:46:34;;;;;;;14.30;8.98;;;;;;;12.65;62.72;95939.44;4973299;28;20105;-66
2022/03/16 00:48:59;;;;;;;22.73;10.00;;;;;;;11.70;64.63;95912.28;4972958;28;20019;-66
2022/03/16 00:51:25;;;;;;;15.65;9.90;;;;;;;11.77;64.62;95886.03;4973093;28;20023;-66
2022/03/16 00:53:52;;;;;;;17.27;9.90;;;;;;;11.50;65.58;95888.63;4972885;28;20110;-66
2022/03/16 00:56:18;;;;;;;15.25;9.50;;;;;;;11.30;65.93;95887.06;4973033;28;20031;-66
2022/03/16 00:58:43;;;;;;;14.23;9.35;;;;;;;11.28;66.02;95898.03;4972840;28;20038;-66
2022/03/16 01:01:09;;;;;;;13.45;9.98;;;;;;;11.51;64.85;95883.00;4955505;28;20031;-66
2022/03/16 01:03:35;;;;;;;16.95;10.00;;;;;;;11.69;63.92;95892.84;4972962;28;20034;-65
2022/03/16 01:06:01;;;;;;;23.25;10.68;;;;;;;11.18;65.25;95866.22;4972717;28;20030;-65
2022/03/16 01:08:28;;;;;;;21.40;11.48;;;;;;;11.14;65.90;95862.53;4971860;28;20030;-65
2022/03/16 01:10:54;;;;;;;17.55;10.07;;;;;;;11.30;67.42;95978.41;4972829;28;20026;-66
2022/03/16 01:13:19;;;;;;;25.75;12.05;;;;;;;11.80;63.74;95856.16;4972844;28;20464;-66
2022/03/16 01:15:45;;;;;;;19.70;11.88;;;;;;;11.50;64.21;95869.97;4972802;28;20028;-67
2022/03/16 01:18:10;;;;;;;24.92;11.60;;;;;;;11.92;65.75;95954.31;4972773;28;20031;-66
2022/03/16 01:20:36;;;;;;;19.13;13.63;;;;;;;11.75;65.20;95877.56;4972521;28;20035;-66
2022/03/16 01:23:02;;;;;;;16.65;13.38;;;;;;;11.32;65.42;95877.72;4973185;28;20035;-66
2022/03/16 01:25:27;;;;;;;18.75;14.05;;;;;;;11.40;65.11;95866.41;4972804;28;20026;-66
2022/03/16 01:27:53;;;;;;;28.92;14.98;;;;;;;11.01;66.62;95873.94;4972669;28;20034;-66
2022/03/16 01:30:19;;;;;;;21.05;16.92;;;;;;;11.09;67.43;95875.94;4972355;28;20027;-66
2022/03/16 01:32:44;;;;;;;26.33;16.40;;;;;;;11.47;66.48;95854.59;4972695;28;20023;-66
2022/03/16 01:35:10;;;;;;;20.48;16.42;;;;;;;10.79;67.88;95861.19;4972665;28;20030;-66
2022/03/16 01:37:36;;;;;;;21.77;16.92;;;;;;;11.04;67.37;95857.38;4972660;28;20027;-66
2022/03/16 01:40:04;;;;;;;23.50;16.80;;;;;;;11.09;66.22;95843.97;4972108;28;20114;-65
2022/03/16 01:42:30;;;;;;;21.85;18.50;;;;;;;11.39;67.15;95911.97;4972505;28;20082;-65
2022/03/16 01:44:58;;;;;;;22.02;18.75;;;;;;;10.51;69.41;95866.34;4972517;28;20420;-67
2022/03/16 01:47:25;;;;;;;22.88;18.85;;;;;;;11.56;66.84;95895.44;4955191;28;20023;-66
2022/03/16 01:49:53;;;;;;;29.10;20.42;;;;;;;11.24;68.93;95934.28;4972350;28;20048;-67
2022/03/16 01:52:21;;;;;;;24.42;19.98;;;;;;;11.03;66.83;95819.31;4972344;28;20023;-67
2022/03/16 01:54:47;;;;;;;28.92;22.58;;;;;;;11.57;66.65;95891.72;4972450;28;20035;-65
2022/03/16 01:57:13;;;;;;;30.00;21.67;;;;;;;12.19;65.56;95948.28;4972440;28;20105;-65
2022/03/16 01:59:40;;;;;;;24.50;19.95;;;;;;;10.51;69.50;95865.56;4972248;28;20538;-67
2022/03/16 02:02:06;;;;;;;24.23;20.75;;;;;;;10.75;70.94;95908.88;4972221;28;20101;-67
2022/03/16 02:04:32;;;;;;;25.75;21.67;;;;;;;10.70;69.40;95866.38;4972280;28;20023;-66
2022/03/16 02:06:58;;;;;;;26.25;23.02;;;;;;;11.27;68.34;95882.34;4972523;28;20022;-66
2022/03/16 02:09:24;;;;;;;30.88;22.88;;;;;;;11.07;69.59;95944.66;4972102;28;20051;-66
2022/03/16 02:11:50;;;;;;;31.08;22.73;;;;;;;10.55;69.53;95850.59;4972377;28;20435;-66
2022/03/16 02:14:15;;;;;;;31.42;24.08;;;;;;;11.06;68.47;95882.63;4972361;28;20018;-66
2022/03/16 02:16:41;;;;;;;30.67;23.75;;;;;;;11.52;68.65;95945.88;4954953;28;20053;-66
2022/03/16 02:19:06;;;;;;;28.60;23.88;;;;;;;11.26;67.90;95891.38;4972308;28;20027;-67
2022/03/16 02:21:37;;;;;;;35.70;24.33;;;;;;;10.93;68.41;95875.38;4975694;28;20400;-67
2022/03/16 02:24:03;;;;;;;31.23;24.73;;;;;;;12.24;66.59;95929.53;4975840;28;20488;-65
2022/03/16 02:26:28;;;;;;;33.38;24.23;;;;;;;12.09;64.62;95882.59;4975746;28;20049;-67
2022/03/16 02:28:54;;;;;;;32.75;23.92;;;;;;;12.13;64.96;95920.09;4975579;28;20089;-66
2022/03/16 02:31:20;;;;;;;37.58;25.60;;;;;;;12.70;64.46;95961.47;4975626;28;20026;-67
2022/03/16 02:33:45;;;;;;;32.22;23.55;;;;;;;11.78;64.94;95882.31;4975556;28;20411;-65
2022/03/16 02:36:11;;;;;;;29.13;23.77;;;;;;;12.15;63.58;95873.41;4975602;28;20045;-65
2022/03/16 02:38:37;;;;;;;28.52;23.30;;;;;;;11.60;65.51;95905.25;4975306;28;20034;-66
2022/03/16 02:41:02;;;;;;;33.03;24.10;;;;;;;11.61;64.77;95848.19;4975284;28;20062;-66
2022/03/16 02:43:28;;;;;;;30.70;24.08;;;;;;;12.31;63.42;95876.56;4958128;28;20093;-66
2022/03/16 02:45:54;;;;;;;31.08;26.20;;;;;;;12.74;63.16;95886.91;4975391;28;20085;-66
2022/03/16 02:48:20;;;;;;;30.63;24.60;;;;;;;11.64;65.04;95894.81;4975322;28;20027;-66
2022/03/16 02:50:46;;;;;;;35.47;26.65;;;;;;;11.49;66.29;95919.81;4974927;28;20022;-66
2022/03/16 02:53:12;;;;;;;35.60;26.77;;;;;;;11.01;67.59;95890.69;4975368;28;20058;-65
2022/03/16 02:55:37;;;;;;;34.35;27.35;;;;;;;10.51;69.85;95876.97;4975142;28;20027;-66
2022/03/16 02:58:03;;;;;;;37.22;27.73;;;;;;;11.23;68.05;95911.41;4975180;28;20027;-66
2022/03/16 03:00:28;;;;;;;39.33;28.58;;;;;;;11.44;66.92;95883.38;4974864;28;20035;-66
2022/03/16 03:02:54;;;;;;;39.25;30.10;;;;;;;12.42;64.58;95909.16;4975038;28;20030;-66
2022/03/16 03:05:20;;;;;;;41.67;31.52;;;;;;;12.51;63.66;95887.94;4975082;28;20031;-66
2022/03/16 03:07:46;;;;;;;43.28;31.90;;;;;;;12.16;65.42;95978.19;4975090;28;20175;-66
2022/03/16 03:10:11;;;;;;;40.47;29.58;;;;;;;11.26;68.02;95956.13;4974732;28;20023;-65
2022/03/16 03:12:37;;;;;;;48.65;33.95;;;;;;;11.11;68.59;95903.88;4974964;28;20110;-66
2022/03/16 03:15:09;;;;;;;52.08;32.78;;;;;;;11.25;67.28;95873.84;4974738;28;20121;-66
2022/03/16 03:17:35;;;;;;;46.00;33.67;;;;;;;11.22;69.44;95971.09;4974811;28;20035;-65
2022/03/16 03:20:01;;;;;;;54.15;34.47;;;;;;;11.52;67.76;95919.25;4973220;28;20023;-66
2022/03/16 03:22:30;;;;;;;53.53;34.22;;;;;;;11.40;66.30;95900.22;4974621;28;20454;-65
2022/03/16 03:24:57;;;;;;;49.28;33.03;;;;;;;10.92;68.84;95973.06;4973311;28;20383;-66
2022/03/16 03:27:23;;;;;;;56.97;34.15;;;;;;;10.38;70.30;95914.88;4974512;28;20033;-65
2022/03/16 03:29:48;;;;;;;52.90;35.05;;;;;;;11.39;68.64;95975.91;4974367;28;20038;-65
2022/03/16 03:32:14;;;;;;;53.40;35.35;;;;;;;11.08;69.20;95978.19;4973332;28;20031;-66
2022/03/16 03:34:39;;;;;;;56.88;33.92;;;;;;;10.16;70.29;95924.13;4974549;28;20372;-65
2022/03/16 03:37:08;;;;;;;60.85;34.70;;;;;;;9.76;71.61;95904.03;4974382;28;20110;-65
2022/03/16 03:39:34;;;;;;;59.58;35.25;;;;;;;10.15;71.02;95933.19;4973981;28;20027;-65
2022/03/16 03:41:59;;;;;;;63.63;37.22;;;;;;;10.14;71.17;95917.53;4974263;28;20021;-65
2022/03/16 03:44:24;;;;;;;66.70;38.35;;;;;;;10.26;71.11;95957.84;4973260;28;20031;-66
2022/03/16 03:46:50;;;;;;;67.00;36.67;;;;;;;10.58;70.50;95967.88;4973503;28;20038;-65
2022/03/16 03:49:15;;;;;;;70.25;35.95;;;;;;;9.96;69.75;95916.34;4974053;28;20483;-66
2022/03/16 03:51:41;;;;;;;71.25;38.00;;;;;;;10.65;71.23;96018.09;4974126;28;20033;-65
2022/03/16 03:54:06;;;;;;;70.15;36.60;;;;;;;10.92;68.78;95961.63;4974213;28;20041;-65
2022/03/16 03:56:32;;;;;;;65.05;36.95;;;;;;;10.14;70.27;95952.88;4974131;28;20472;-65
2022/03/16 03:58:57;;;;;;;69.85;39.17;;;;;;;10.72;69.23;95929.94;4973802;28;20094;-66
2022/03/16 04:01:23;;;;;;;71.55;37.05;;;;;;;10.60;70.27;96020.81;4973718;28;20034;-66
2022/03/16 04:03:50;;;;;;;68.65;38.88;;;;;;;11.15;67.19;95918.16;4973998;28;20027;-65
2022/03/16 04:06:15;;;;;;;62.35;37.30;;;;;;;11.34;67.19;96008.72;4973970;28;20547;-65
2022/03/16 04:08:42;;;;;;;63.20;38.67;;;;;;;11.37;66.16;95938.13;4973644;28;20118;-65
2022/03/16 04:11:09;;;;;;;59.72;36.15;;;;;;;10.97;66.59;95953.56;4973661;28;20061;-65
2022/03/16 04:13:34;;;;;;;64.70;39.85;;;;;;;11.35;66.04;95951.72;4973733;28;20027;-65
2022/03/16 04:16:00;;;;;;;52.15;31.65;;;;;;;9.64;70.52;95930.19;4973767;28;20027;-65
2022/03/16 04:18:26;;;;;;;49.95;32.33;;;;;;;10.12;69.57;95940.91;4973503;28;20472;-65
2022/03/16 04:20:51;;;;;;;42.88;28.40;;;;;;;10.28;68.03;95953.00;4972408;28;20030;-65
2022/03/16 04:23:17;;;;;;;46.15;31.45;;;;;;;10.68;67.58;95959.75;4973601;28;20034;-65
2022/03/16 04:25:42;;;;;;;47.33;31.63;;;;;;;11.12;65.84;95960.56;4973510;28;20027;-67
2022/03/16 04:28:09;;;;;;;39.67;27.70;;;;;;;10.61;65.83;95961.19;4973601;28;20030;-64
2022/03/16 04:30:34;;;;;;;39.90;27.38;;;;;;;11.12;66.88;96062.53;4973278;28;20082;-64
2022/03/16 04:33:00;;;;;;;35.78;26.35;;;;;;;11.04;66.29;96057.03;4973639;28;20030;-67
2022/03/16 04:35:25;;;;;;;33.60;25.38;;;;;;;9.54;69.64;95964.81;4973545;28;20386;-66
2022/03/16 04:37:51;;;;;;;32.35;26.33;;;;;;;10.66;66.84;95964.59;4973553;28;20150;-66
2022/03/16 04:40:16;;;;;;;35.08;24.67;;;;;;;9.19;68.69;95948.03;4973065;28;20037;-67
2022/03/16 04:42:42;;;;;;;35.85;26.08;;;;;;;9.50;68.20;96019.53;4973216;28;20031;-66
2022/03/16 04:45:08;;;;;;;37.53;27.67;;;;;;;10.45;66.40;96056.31;4973400;28;20432;-66
2022/03/16 04:47:33;;;;;;;37.60;28.40;;;;;;;10.19;65.23;95970.66;4955760;28;20113;-67
2022/03/16 04:49:59;;;;;;;41.85;30.10;;;;;;;10.46;65.97;96023.31;4972922;28;20054;-66
2022/03/16 04:52:25;;;;;;;42.72;28.67;;;;;;;10.05;65.05;95959.88;4973080;28;20090;-67
2022/03/16 04:54:50;;;;;;;39.42;27.58;;;;;;;10.17;65.13;95991.38;4973092;28;20494;-67
2022/03/16 04:57:16;;;;;;;46.05;29.92;;;;;;;10.98;63.67;96005.72;4973324;28;20056;-65
2022/03/16 04:59:41;;;;;;;44.00;29.33;;;;;;;10.26;64.04;95978.31;4971431;28;20030;-67
2022/03/16 05:02:07;;;;;;;41.60;29.27;;;;;;;10.41;64.55;95989.59;4972767;28;20073;-64
2022/03/16 05:04:32;;;;;;;45.25;30.73;;;;;;;11.61;63.23;96077.38;4972972;28;20106;-64
2022/03/16 05:06:57;;;;;;;42.92;30.10;;;;;;;11.35;62.42;95994.31;4973053;28;20407;-67
2022/03/16 05:09:23;;;;;;;42.47;29.73;;;;;;;11.54;62.68;96094.78;4972608;28;20466;-68
2022/03/16 05:11:49;;;;;;;39.15;27.60;;;;;;;10.54;64.41;96067.91;4971584;28;20027;-67
2022/03/16 05:14:14;;;;;;;47.35;30.75;;;;;;;9.93;65.56;96007.28;4972717;28;20050;-66
2022/03/16 05:16:40;;;;;;;52.83;33.17;;;;;;;10.01;65.10;96006.69;4972920;28;20030;-65
2022/03/16 05:19:06;;;;;;;57.80;33.05;;;;;;;10.71;64.86;96074.72;4972792;28;20101;-67
2022/03/16 05:21:31;;;;;;;48.30;32.13;;;;;;;9.64;65.86;96031.94;4972599;28;20023;-65
2022/03/16 05:23:57;;;;;;;50.17;33.25;;;;;;;10.50;64.25;96077.56;4955878;28;20042;-63
2022/03/16 05:26:22;;;;;;;53.00;34.08;;;;;;;10.70;63.53;96107.69;4972716;28;20026;-64
2022/03/16 05:28:48;;;;;;;46.33;32.45;;;;;;;11.02;62.22;96078.63;4972605;28;20030;-69
2022/03/16 05:31:13;;;;;;;43.25;31.30;;;;;;;11.36;61.20;96107.00;4972776;28;20050;-63
2022/03/16 05:33:39;;;;;;;37.55;28.98;;;;;;;10.79;58.91;96117.44;4972706;28;20031;-64
2022/03/16 05:36:04;;;;;;;33.88;26.90;;;;;;;11.14;58.56;96134.94;4972526;28;20034;-63
2022/03/16 05:38:30;;;;;;;35.10;27.52;;;;;;;11.26;57.12;96101.78;4972247;28;20023;-64
2022/03/16 05:40:55;;;;;;;33.67;25.77;;;;;;;11.19;57.20;96116.25;4972448;28;20026;-64
2022/03/16 05:43:23;;;;;;;38.08;28.73;;;;;;;11.35;56.62;96108.88;4972416;28;20031;-64
2022/03/16 05:45:50;;;;;;;35.88;28.05;;;;;;;11.49;56.23;96134.81;4972568;28;20033;-63
2022/03/16 05:48:15;;;;;;;35.15;27.13;;;;;;;11.31;56.79;96118.53;4972505;28;20027;-65
2022/03/16 05:50:44;;;;;;;37.08;27.70;;;;;;;11.31;57.15;96150.47;4972190;28;20473;-64
2022/03/16 05:53:10;;;;;;;35.88;27.98;;;;;;;11.41;56.21;96125.56;4972520;28;20031;-64
2022/03/16 05:55:35;;;;;;;36.10;27.95;;;;;;;11.29;56.33;96139.31;4957508;28;20029;-66
2022/03/16 05:58:01;;;;;;;60.47;30.33;;;;;;;11.10;60.95;96154.41;4976218;28;20117;-65
2022/03/16 06:00:27;;;;;;;57.38;30.67;;;;;;;11.63;61.78;96125.84;4974631;28;20070;-66
2022/03/16 06:02:53;;;;;;;36.38;27.73;;;;;;;11.97;58.81;96130.22;4976207;28;20108;-69
2022/03/16 06:05:19;;;;;;;32.45;26.48;;;;;;;12.10;54.19;96147.38;4958690;28;20051;-67
2022/03/16 06:07:45;;;;;;;33.30;26.92;;;;;;;11.43;54.08;96124.22;4974551;28;20033;-67
2022/03/16 06:10:14;;;;;;;34.58;27.48;;;;;;;11.10;55.34;96123.25;4970820;28;20097;-67
2022/03/16 06:12:57;;;;;;;32.45;26.35;;;;;;;10.98;56.50;96160.13;4944543;29;20030;-67
2022/03/16 06:15:24;;;;;;;33.60;25.80;;;;;;;10.52;57.21;96130.47;4937415;29;20038;-67
2022/03/16 06:17:54;;;;;;;33.65;27.05;;;;;;;10.66;56.42;96113.59;4937359;29;20059;-67
2022/03/16 06:20:20;;;;;;;35.75;27.98;;;;;;;10.62;56.44;96111.75;4937170;29;20106;-66
2022/03/16 06:22:45;;;;;;;34.03;27.20;;;;;;;11.00;55.49;96117.25;4952103;29;20115;-67
2022/03/16 06:25:11;;;;;;;37.10;28.10;;;;;;;11.48;55.07;96141.25;4965948;28;20058;-66
2022/03/16 06:27:36;;;;;;;34.40;27.38;;;;;;;11.35;54.94;96148.03;4975673;28;20037;-67
2022/03/16 06:30:02;;;;;;;38.33;29.10;;;;;;;11.88;54.99;96163.97;4975500;28;20027;-67
2022/03/16 06:32:28;;;;;;;36.67;28.45;;;;;;;12.12;54.59;96177.22;4967231;28;20031;-66
2022/03/16 06:34:54;;;;;;;39.78;28.73;;;;;;;12.17;53.59;96169.16;4956474;29;20023;-67
2022/03/16 06:37:19;;;;;;;36.72;28.23;;;;;;;12.16;53.48;96170.22;4956312;29;20089;-66
2022/03/16 06:39:44;;;;;;;39.17;29.48;;;;;;;12.29;53.68;96185.53;4961903;28;20089;-67
2022/03/16 06:42:10;;;;;;;42.38;29.95;;;;;;;12.49;53.79;96179.88;4975473;28;20027;-67
2022/03/16 06:44:35;;;;;;;41.53;30.83;;;;;;;12.52;53.19;96164.38;4975484;28;20026;-67
2022/03/16 06:47:01;;;;;;;42.10;32.35;;;;;;;12.55;52.57;96171.81;4975441;28;20046;-67
2022/03/16 06:49:27;;;;;;;39.33;29.98;;;;;;;12.72;52.79;96188.88;4975240;28;20031;-67
2022/03/16 06:51:52;;;;;;;38.75;28.67;;;;;;;12.66;52.45;96141.19;4975187;28;20052;-67
2022/03/16 06:54:17;;;;;;;37.53;28.50;;;;;;;12.97;52.15;96174.31;4974192;28;20094;-66
2022/03/16 06:56:43;;;;;;;36.60;27.83;;;;;;;12.87;51.92;96179.81;4974895;28;20023;-66
2022/03/16 06:59:08;;;;;;;35.42;27.95;;;;;;;13.02;51.24;96192.13;4975016;28;20042;-65
2022/03/16 07:01:33;;;;;;;36.70;26.98;;;;;;;12.84;52.13;96204.41;4974974;28;20143;-65
2022/03/16 07:03:59;;;;;;;28.48;23.88;;;;;;;12.57;52.60;96202.44;4975216;28;20035;-66
2022/03/16 07:06:25;;;;;;;29.73;24.63;;;;;;;12.62;50.33;96164.22;4973605;28;20027;-66
2022/03/16 07:08:50;;;;;;;28.58;24.20;;;;;;;12.33;49.99;96117.16;4957196;28;20034;-66
2022/03/16 07:11:17;;;;;;;31.80;24.60;;;;;;;12.42;49.69;96200.00;4973914;28;20030;-67
2022/03/16 07:14:30;;;;;;;31.90;25.30;;;;;;;11.80;51.19;96153.88;4974938;28;20026;-66
2022/03/16 07:16:29;;;;;;;30.50;25.20;;;;;;;11.86;51.64;96201.53;4974748;28;20035;-69
2022/03/16 07:18:55;;;;;;;35.92;27.05;;;;;;;12.04;51.24;96168.00;4988587;23;20042;-72
2022/03/16 07:21:20;;;;;;;35.88;27.40;;;;;;;11.94;51.32;96174.25;4973315;28;20034;-70
2022/03/16 07:23:46;;;;;;;33.50;26.52;;;;;;;12.04;51.43;96146.66;4974718;28;20439;-70
2022/03/16 07:26:11;;;;;;;35.00;26.88;;;;;;;12.27;51.58;96193.00;4989758;28;20037;-68
2022/03/16 07:28:36;;;;;;;32.50;26.63;;;;;;;12.16;51.99;96181.69;4976367;28;20027;-70
2022/03/16 07:31:02;;;;;;;35.25;27.45;;;;;;;12.34;50.92;96171.31;4994004;28;20113;-69
2022/03/16 07:33:27;;;;;;;36.20;28.17;;;;;;;12.34;50.54;96160.66;4994346;28;20471;-69
2022/03/16 07:35:52;;;;;;;37.42;28.65;;;;;;;12.06;50.16;96117.03;4994103;28;20109;-66
2022/03/16 07:38:19;;;;;;;39.83;29.85;;;;;;;12.74;50.38;96200.06;4993971;28;20026;-72
2022/03/16 07:40:45;;;;;;;37.17;27.98;;;;;;;12.64;50.26;96186.06;4992640;28;20506;-70
2022/03/16 07:43:11;;;;;;;41.33;30.33;;;;;;;12.37;50.70;96190.19;4993717;28;20062;-71
2022/03/16 07:45:37;;;;;;;39.63;30.83;;;;;;;12.47;50.72;96166.03;4993951;28;20081;-71
2022/03/16 07:48:03;;;;;;;40.38;30.40;;;;;;;12.19;50.87;96162.44;4976407;28;20018;-69
2022/03/16 07:50:29;;;;;;;45.10;33.17;;;;;;;12.56;50.37;96224.88;4993294;28;20072;-70
2022/03/16 07:52:55;;;;;;;40.92;32.03;;;;;;;12.22;51.28;96211.75;4993493;28;20427;-69
2022/03/16 07:55:21;;;;;;;43.97;33.30;;;;;;;12.28;51.85;96234.59;4986723;28;20058;-72
2022/03/16 07:57:47;;;;;;;48.33;34.72;;;;;;;11.71;52.29;96143.06;4974219;28;20031;-65
2022/03/16 08:00:13;;;;;;;48.25;34.33;;;;;;;11.78;52.68;96209.38;4956387;28;20022;-67
2022/03/16 08:02:40;;;;;;;45.53;33.78;;;;;;;11.12;51.70;96061.75;4974020;28;20027;-67
2022/03/16 08:05:06;;;;;;;46.42;34.35;;;;;;;12.32;51.34;96221.50;4973801;28;20082;-66
2022/03/16 08:07:32;;;;;;;46.60;33.45;;;;;;;12.56;50.78;96235.56;4973869;28;20031;-68
2022/03/16 08:09:59;;;;;;;40.90;30.48;;;;;;;12.20;50.45;96163.25;4975572;28;20040;-68
2022/03/16 08:12:25;;;;;;;39.10;30.02;;;;;;;12.56;50.19;96190.19;4993406;28;20021;-68
2022/03/16 08:14:52;;;;;;;37.25;27.80;;;;;;;11.85;49.34;96121.88;4975808;28;20121;-70
2022/03/16 08:17:17;;;;;;;31.30;26.15;;;;;;;12.41;49.37;96196.53;4992711;28;20050;-69
2022/03/16 08:19:43;;;;;;;32.70;27.10;;;;;;;11.54;49.14;96020.19;4993408;28;20467;-67
2022/03/16 08:22:09;;;;;;;31.63;26.20;;;;;;;11.07;48.95;95998.69;4993033;28;20026;-69
2022/03/16 08:24:35;;;;;;;30.02;24.83;;;;;;;11.19;48.84;96014.25;4993141;28;20025;-72
2022/03/16 08:27:00;;;;;;;28.48;25.30;;;;;;;12.46;49.18;96233.84;4992198;28;20498;-71
2022/03/16 08:29:25;;;;;;;28.42;24.27;;;;;;;11.24;48.66;95957.47;4992803;28;20046;-69
2022/03/16 08:31:51;;;;;;;27.88;24.30;;;;;;;12.87;48.33;96168.34;4992585;28;20034;-71
2022/03/16 08:34:18;;;;;;;29.90;25.60;;;;;;;12.70;47.77;96126.19;4992867;28;20027;-68
2022/03/16 08:36:44;;;;;;;30.10;25.67;;;;;;;13.18;47.70;96208.69;4992907;28;20537;-69
2022/03/16 08:39:09;;;;;;;31.77;26.25;;;;;;;13.12;47.55;96189.28;4992707;28;20018;-71
2022/03/16 08:41:35;;;;;;;30.50;25.67;;;;;;;12.33;47.20;96034.44;4978771;28;20427;-70
2022/03/16 08:44:03;;;;;;;31.95;25.33;;;;;;;13.37;47.31;96198.75;4973378;28;20074;-69
2022/03/16 08:46:30;;;;;;;34.50;26.90;;;;;;;13.61;46.93;96235.19;4973542;28;20078;-74
2022/03/16 08:48:56;;;;;;;32.10;26.40;;;;;;;13.22;47.46;96241.78;4973025;28;20730;-69
2022/03/16 08:51:22;;;;;;;31.42;27.73;;;;;;;13.18;47.89;96243.41;4973266;28;20050;-69
2022/03/16 08:53:48;;;;;;;34.83;28.15;;;;;;;13.49;47.95;96239.13;4973003;28;20106;-70
2022/03/16 08:56:14;;;;;;;35.22;27.10;;;;;;;13.15;47.44;96185.22;4972590;28;20387;-70
2022/03/16 08:58:39;;;;;;;31.50;26.67;;;;;;;12.82;47.25;96117.69;4972911;28;20472;-70
2022/03/16 09:01:05;;;;;;;33.53;26.92;;;;;;;13.82;47.36;96235.59;4955775;28;20134;-70
2022/03/16 09:03:31;;;;;;;34.10;26.77;;;;;;;12.06;46.90;95989.81;4972764;28;20066;-70
2022/03/16 09:05:57;;;;;;;28.63;24.90;;;;;;;13.60;46.83;96188.16;4955663;28;20030;-69
2022/03/16 09:08:23;;;;;;;27.05;23.90;;;;;;;13.65;46.19;96212.13;4972914;28;20027;-70
2022/03/16 09:10:50;;;;;;;29.30;24.65;;;;;;;12.93;46.30;96077.16;4972658;28;20035;-69
2022/03/16 09:13:16;;;;;;;30.75;26.27;;;;;;;12.78;45.74;96047.28;4972756;28;20476;-69
2022/03/16 09:15:43;;;;;;;28.23;25.17;;;;;;;13.80;46.36;96230.53;4972974;28;20058;-69
2022/03/16 09:18:09;;;;;;;33.58;26.05;;;;;;;13.05;46.16;96121.28;4972854;28;20038;-69
2022/03/16 09:20:35;;;;;;;28.00;24.67;;;;;;;13.90;46.25;96225.00;4972597;28;20103;-68
2022/03/16 09:23:01;;;;;;;30.88;25.23;;;;;;;14.04;45.82;96228.47;4955493;28;20036;-69
2022/03/16 09:25:26;;;;;;;35.53;26.25;;;;;;;13.50;45.88;96160.53;4972418;28;20033;-67
2022/03/16 09:27:52;;;;;;;31.67;25.45;;;;;;;14.17;46.00;96218.03;4972837;28;20106;-68
2022/03/16 09:30:19;;;;;;;34.30;27.60;;;;;;;13.68;45.48;96145.50;4971710;28;20034;-68
2022/03/16 09:32:45;;;;;;;32.08;26.42;;;;;;;13.78;45.35;96150.63;4972693;28;20030;-68
2022/03/16 09:35:10;;;;;;;34.35;28.85;;;;;;;12.90;45.37;96012.91;4972709;28;20115;-67
2022/03/16 09:37:36;;;;;;;34.17;25.75;;;;;;;14.45;45.57;96216.88;4972703;28;20100;-68
2022/03/16 09:40:02;;;;;;;36.40;25.05;;;;;;;14.89;45.24;96236.78;4955017;28;20030;-67
2022/03/16 09:42:30;;;;;;;28.88;25.65;;;;;;;15.08;44.74;96237.38;4972380;28;20081;-69
2022/03/16 09:45:01;;;;;;;30.85;25.08;;;;;;;15.23;44.60;96241.59;4972629;28;20023;-70
2022/03/16 09:47:27;;;;;;;30.80;26.40;;;;;;;14.54;44.03;96140.16;4972832;28;20034;-69
2022/03/16 09:49:53;;;;;;;31.45;26.35;;;;;;;14.99;44.04;96180.28;4972335;28;20046;-71
2022/03/16 09:52:19;;;;;;;31.55;24.95;;;;;;;15.38;43.61;96242.31;4972470;28;20480;-71
2022/03/16 09:54:46;;;;;;;31.17;25.85;;;;;;;15.09;43.82;96189.94;4972572;28;20073;-70
2022/03/16 09:57:11;;;;;;;26.75;24.05;;;;;;;15.34;43.68;96226.03;4984721;28;20041;-71
2022/03/16 09:59:38;;;;;;;30.52;25.08;;;;;;;14.52;43.19;96087.97;4991820;28;20026;-69
2022/03/16 10:02:06;;;;;;;25.42;22.38;;;;;;;15.25;43.28;96222.50;4991743;28;20030;-70
2022/03/16 10:04:34;;;;;;;29.08;23.90;;;;;;;14.94;42.78;96150.94;4991956;28;20030;-69
2022/03/16 10:07:00;;;;;;;25.73;23.02;;;;;;;15.08;42.96;96186.47;4991913;28;20105;-69
2022/03/16 10:15:16;;;;;;;26.40;23.60;;;;;;;15.48;43.12;96199.13;4972818;28;20065;-69
2022/03/16 10:17:45;;;;;;;;;;;;;;;15.77;42.92;96212.06;4974673;28;20031;-68
2022/03/16 10:20:31;;;;;;;33.60;24.17;;;;;;;15.11;44.42;96211.88;4972054;28;19918;-74
2022/03/16 10:23:03;;;;;;;28.73;25.80;;;;;;;14.96;44.46;96220.28;4972225;28;20143;-72
2022/03/16 10:25:29;;;;;;;;;;;;;;;14.93;47.38;96221.69;4972752;28;20023;-68
2022/03/16 10:28:13;;;;;;;32.92;27.75;;;;;;;14.95;44.76;96216.03;4988209;28;20402;-72
2022/03/16 10:30:57;;;;;;;27.05;24.13;;;;;;;14.70;44.34;96222.78;4991337;28;20033;-70
2022/03/16 10:33:36;;;;;;;25.55;22.95;;;;;;;15.02;44.36;96225.22;4990601;28;20415;-70
2022/03/16 10:36:04;;;;;;;26.50;23.50;;;;;;;14.80;44.58;96227.91;4991662;28;20492;-73
2022/03/16 10:38:36;;;;;;;122.32;53.00;;;;;;;14.92;46.18;96230.03;4991771;28;20490;-69
2022/03/16 10:46:54;;;;;;;26.77;22.50;;;;;;;15.36;43.64;96183.63;4995075;28;20487;-72
2022/03/16 10:49:22;;;;;;;23.92;21.42;;;;;;;15.91;42.82;96214.63;4994689;28;20026;-72
2022/03/16 10:52:00;;;;;;;24.60;22.10;;;;;;;15.49;41.79;96086.22;4994769;28;20029;-73
2022/03/16 10:54:26;;;;;;;25.25;22.65;;;;;;;16.80;41.17;96176.53;4994611;28;20023;-70
2022/03/16 10:56:53;;;;;;;23.60;21.20;;;;;;;17.12;39.67;96195.91;4976371;28;20073;-75
2022/03/16 10:59:24;;;;;;;23.00;20.35;;;;;;;16.92;39.88;96129.41;4994789;28;20542;-76
2022/03/16 11:01:50;;;;;;;22.15;20.02;;;;;;;17.43;39.54;96163.38;4977256;28;20073;-75
2022/03/16 11:04:16;;;;;;;22.27;20.13;;;;;;;17.63;39.08;96173.44;4977361;28;20320;-74
2022/03/16 11:06:42;;;;;;;23.55;21.02;;;;;;;17.80;38.29;96131.44;4994549;28;20039;-75
2022/03/16 11:09:09;;;;;;;22.55;20.20;;;;;;;18.09;37.64;96193.34;4994505;28;20034;-74
2022/03/16 11:14:20;;;;;;;23.42;21.08;;;;;;;17.47;38.49;96191.22;4975349;28;20615;-75
2022/03/16 11:16:46;;;;;;;23.02;20.75;;;;;;;17.35;38.56;96108.53;4975344;28;20153;-73
2022/03/16 11:19:17;;;;;;;23.75;21.55;;;;;;;17.44;38.91;96205.31;4974879;28;20058;-74
2022/03/16 11:22:04;;;;;;;22.85;20.70;;;;;;;17.45;39.21;96185.38;4973463;28;20023;-74
2022/03/16 11:24:36;;;;;;;23.25;20.95;;;;;;;17.18;38.36;96078.25;4974900;28;20105;-73
2022/03/16 11:27:15;;;;;;;21.08;19.08;;;;;;;18.40;38.24;96179.50;4979155;28;20030;-74
2022/03/16 11:29:52;;;;;;;22.17;19.98;;;;;;;18.13;38.14;96167.34;4994154;28;20030;-73